Time;durP1;ratioP1;P1;durP2;ratioP2;P2;SDS_P1;SDS_P2;PMS_P1;PMS_P2;Temp;Humidity;BMP_temperature;BMP_pressure;BME280_temperature;BME280_humidity;BME280_pressure;Samples;Min_cycle;Max_cycle;Signal;HPM_P1;HPM_P2
2022/04/07 03:02:33;;;;;;;0.52;0.40;;;19.10;46.00;;;;;;4883778;28;45655;-60
2022/04/07 03:04:59;;;;;;;0.40;0.40;;;19.10;46.00;;;;;;4897464;29;45562;-60
2022/04/07 03:07:24;;;;;;;0.30;0.30;;;19.00;45.90;;;;;;4877710;29;45519;-54
2022/04/07 03:09:50;;;;;;;0.20;0.20;;;19.00;46.00;;;;;;4896678;28;45279;-56
2022/04/07 03:12:17;;;;;;;0.40;0.40;;;19.10;46.00;;;;;;4891402;29;46200;-56
2022/04/07 03:14:43;;;;;;;0.47;0.40;;;19.00;46.00;;;;;;4885168;29;45238;-54
2022/04/07 03:17:08;;;;;;;0.40;0.40;;;19.00;46.00;;;;;;4894945;28;45390;-57
2022/04/07 03:19:34;;;;;;;0.30;0.30;;;19.00;46.00;;;;;;4893122;28;45241;-55
2022/04/07 03:22:00;;;;;;;0.43;0.40;;;19.00;46.10;;;;;;4896192;28;46683;-56
2022/04/07 03:24:25;;;;;;;1.17;0.40;;;19.00;46.00;;;;;;4895431;28;45052;-56
2022/04/07 03:26:52;;;;;;;0.63;0.40;;;19.00;46.00;;;;;;4898576;28;45074;-55
2022/04/07 03:29:21;;;;;;;0.88;0.60;;;19.00;46.00;;;;;;4891626;29;44963;-56
2022/04/07 03:31:48;;;;;;;0.40;0.30;;;19.00;46.10;;;;;;4895208;28;46047;-54
2022/04/07 03:34:14;;;;;;;0.40;0.40;;;18.90;46.00;;;;;;4891921;28;45388;-55
2022/04/07 03:36:39;;;;;;;0.40;0.40;;;18.90;46.00;;;;;;4888770;28;44872;-59
2022/04/07 03:39:05;;;;;;;0.77;0.30;;;18.90;46.00;;;;;;4894696;28;45376;-54
2022/04/07 03:41:30;;;;;;;0.40;0.40;;;18.90;46.00;;;;;;4890507;28;46264;-57
2022/04/07 03:43:56;;;;;;;0.30;0.30;;;18.90;46.00;;;;;;4894374;29;45225;-54
2022/04/07 03:46:22;;;;;;;0.30;0.30;;;18.90;46.00;;;;;;4891385;29;44983;-57
2022/04/07 03:48:49;;;;;;;0.47;0.43;;;18.90;46.10;;;;;;4893347;28;45354;-54
2022/04/07 03:51:15;;;;;;;0.50;0.40;;;18.90;46.10;;;;;;4888968;29;46009;-53
2022/04/07 03:53:41;;;;;;;0.30;0.30;;;18.90;46.10;;;;;;4885202;29;45464;-53
2022/04/07 03:56:06;;;;;;;0.20;0.20;;;18.90;46.10;;;;;;4890735;28;45252;-55
2022/04/07 03:58:32;;;;;;;0.25;0.25;;;18.80;46.00;;;;;;4897166;28;44992;-54
2022/04/07 04:00:58;;;;;;;0.40;0.40;;;18.90;46.10;;;;;;4892576;28;47008;-55
2022/04/07 04:03:23;;;;;;;0.73;0.30;;;18.90;46.10;;;;;;4894194;28;44961;-56
2022/04/07 04:05:49;;;;;;;0.40;0.25;;;18.90;46.10;;;;;;4875230;28;45244;-58
2022/04/07 04:08:15;;;;;;;0.40;0.40;;;18.80;46.00;;;;;;4887246;29;45187;-56
2022/04/07 04:10:40;;;;;;;0.43;0.40;;;18.80;46.00;;;;;;4892723;28;45886;-57
2022/04/07 04:13:06;;;;;;;0.30;0.30;;;18.80;46.00;;;;;;4901603;28;44950;-56
2022/04/07 04:15:31;;;;;;;0.50;0.30;;;18.80;46.10;;;;;;4891760;29;45416;-54
2022/04/07 04:17:57;;;;;;;0.40;0.40;;;18.80;46.00;;;;;;4893990;28;45256;-56
2022/04/07 04:20:22;;;;;;;0.40;0.40;;;18.80;46.10;;;;;;4885269;29;45979;-55
2022/04/07 04:22:48;;;;;;;0.40;0.40;;;18.80;46.10;;;;;;4888456;29;45214;-56
2022/04/07 04:25:13;;;;;;;0.35;0.35;;;18.80;46.00;;;;;;4899322;28;44700;-58
2022/04/07 04:27:40;;;;;;;0.30;0.30;;;18.80;46.00;;;;;;4898266;28;45495;-57
2022/04/07 04:30:07;;;;;;;0.57;0.30;;;18.80;46.00;;;;;;4897163;28;47104;-57
2022/04/07 04:32:32;;;;;;;0.68;0.40;;;18.80;46.10;;;;;;4891190;28;45226;-56
2022/04/07 04:34:58;;;;;;;0.40;0.40;;;18.80;46.10;;;;;;4892760;28;45313;-58
2022/04/07 04:37:26;;;;;;;0.30;0.30;;;18.70;46.10;;;;;;4893758;29;45745;-58
2022/04/07 04:39:53;;;;;;;1.00;0.32;;;18.80;46.10;;;;;;4888722;29;47065;-58
2022/04/07 04:42:19;;;;;;;0.30;0.30;;;18.70;46.10;;;;;;4873281;29;45568;-57
2022/04/07 04:44:45;;;;;;;0.30;0.30;;;18.70;46.10;;;;;;4874053;29;45166;-59
2022/04/07 04:47:11;;;;;;;0.30;0.30;;;18.70;46.10;;;;;;4886633;29;45304;-58
2022/04/07 04:49:40;;;;;;;0.47;0.47;;;18.70;46.10;;;;;;4894594;29;46079;-56
2022/04/07 04:52:07;;;;;;;0.40;0.30;;;18.70;46.10;;;;;;4895804;28;45297;-58
2022/04/07 04:54:33;;;;;;;0.40;0.40;;;18.70;46.10;;;;;;4896538;28;45581;-56
2022/04/07 04:56:58;;;;;;;0.30;0.30;;;18.70;46.10;;;;;;4897089;28;45208;-53
2022/04/07 04:59:24;;;;;;;0.20;0.20;;;18.70;46.10;;;;;;4889433;29;46141;-57
2022/04/07 05:01:49;;;;;;;0.40;0.40;;;18.70;46.10;;;;;;4890895;29;45656;-56
2022/04/07 05:04:15;;;;;;;0.38;0.30;;;18.70;46.10;;;;;;4891043;29;45265;-58
2022/04/07 05:06:41;;;;;;;0.30;0.30;;;18.70;46.10;;;;;;4890761;28;45270;-58
2022/04/07 05:09:06;;;;;;;0.28;0.28;;;18.70;46.10;;;;;;4900624;28;46156;-58
2022/04/07 05:11:33;;;;;;;0.52;0.40;;;18.60;46.10;;;;;;4895024;29;45131;-58
2022/04/07 05:13:59;;;;;;;0.30;0.30;;;18.60;46.10;;;;;;4892408;29;45223;-55
2022/04/07 05:16:24;;;;;;;0.30;0.30;;;18.60;46.10;;;;;;4887253;29;45458;-54
2022/04/07 05:18:50;;;;;;;0.30;0.30;;;18.60;46.10;;;;;;4882308;29;46138;-54
2022/04/07 05:21:16;;;;;;;0.70;0.40;;;18.60;46.10;;;;;;4887251;29;45335;-58
2022/04/07 05:23:41;;;;;;;0.40;0.40;;;18.60;46.10;;;;;;4891377;29;45140;-56
2022/04/07 05:26:07;;;;;;;0.30;0.30;;;18.60;46.10;;;;;;4892116;28;45317;-56
2022/04/07 05:28:32;;;;;;;0.30;0.30;;;18.60;46.10;;;;;;4890347;28;45517;-58
2022/04/07 05:30:58;;;;;;;0.40;0.40;;;18.60;46.10;;;;;;4868354;29;45242;-59
2022/04/07 05:33:24;;;;;;;0.40;0.40;;;18.60;46.10;;;;;;4893888;29;44929;-56
2022/04/07 05:35:49;;;;;;;0.40;0.30;;;18.60;46.10;;;;;;4908504;28;45237;-56
2022/04/07 05:38:15;;;;;;;0.40;0.40;;;18.60;46.10;;;;;;4898967;29;45904;-57
2022/04/07 05:40:40;;;;;;;0.38;0.30;;;18.60;46.20;;;;;;4903522;28;45295;-56
2022/04/07 05:43:06;;;;;;;0.55;0.43;;;18.60;46.20;;;;;;4887886;29;44929;-57
2022/04/07 05:45:32;;;;;;;0.30;0.30;;;18.60;46.20;;;;;;4885408;29;45124;-58
2022/04/07 05:47:57;;;;;;;0.30;0.30;;;18.50;46.20;;;;;;4900415;28;46090;-57
2022/04/07 05:50:23;;;;;;;0.30;0.30;;;18.50;46.20;;;;;;4896590;28;45034;-59
2022/04/07 05:52:48;;;;;;;0.30;0.30;;;18.50;46.20;;;;;;4900323;29;45367;-53
2022/04/07 05:55:14;;;;;;;0.70;0.32;;;18.50;46.10;;;;;;4901458;28;45691;-58
2022/04/07 05:57:40;;;;;;;0.55;0.40;;;18.50;46.10;;;;;;4910403;28;45857;-54
2022/04/07 06:00:12;;;;;;;0.30;0.30;;;18.50;46.20;;;;;;4900044;29;45854;-56
2022/04/07 06:02:41;;;;;;;0.60;0.40;;;18.50;46.20;;;;;;4891499;29;44921;-56
2022/04/07 06:05:07;;;;;;;0.30;0.30;;;18.50;46.20;;;;;;4898216;28;45512;-58
2022/04/07 06:07:33;;;;;;;0.30;0.30;;;18.50;46.10;;;;;;4885741;29;45962;-58
2022/04/07 06:09:58;;;;;;;0.70;0.40;;;18.50;46.20;;;;;;4900874;29;45277;-55
2022/04/07 06:12:24;;;;;;;1.38;0.32;;;18.50;46.10;;;;;;4897793;28;45018;-58
2022/04/07 06:14:49;;;;;;;0.50;0.38;;;18.40;46.10;;;;;;4883514;29;46191;-59
2022/04/07 06:17:15;;;;;;;2.05;0.50;;;18.30;46.40;;;;;;4898445;29;45916;-60
2022/04/07 06:19:40;;;;;;;0.93;0.40;;;18.30;46.50;;;;;;4900397;29;44738;-61
2022/04/07 06:22:07;;;;;;;4.03;0.30;;;18.30;46.40;;;;;;4881414;29;45518;-60
2022/04/07 06:24:34;;;;;;;1.40;0.40;;;18.40;46.30;;;;;;4908532;28;45426;-59
2022/04/07 06:26:59;;;;;;;2.05;0.25;;;18.50;46.20;;;;;;4892996;29;46232;-60
2022/04/07 06:29:25;;;;;;;3.90;0.38;;;18.60;46.00;;;;;;4865807;29;45216;-60
2022/04/07 06:31:51;;;;;;;1.38;0.30;;;18.70;45.90;;;;;;4899509;28;45256;-59
2022/04/07 06:34:16;;;;;;;2.40;0.70;;;18.90;45.80;;;;;;4900424;28;45488;-60
2022/04/07 06:36:42;;;;;;;0.20;0.20;;;19.00;45.60;;;;;;4909701;28;45967;-58
2022/04/07 06:39:07;;;;;;;1.83;0.30;;;19.10;45.50;;;;;;4902517;29;45434;-59
2022/04/07 06:41:33;;;;;;;0.22;0.22;;;19.20;45.40;;;;;;4893386;29;45197;-57
2022/04/07 06:43:59;;;;;;;0.57;0.20;;;19.30;45.30;;;;;;4890378;29;45274;-59
2022/04/07 06:46:25;;;;;;;0.30;0.30;;;19.40;45.10;;;;;;4900881;29;46022;-59
2022/04/07 06:48:50;;;;;;;0.70;0.20;;;19.60;45.10;;;;;;4900730;29;44969;-59
2022/04/07 06:51:17;;;;;;;0.20;0.20;;;19.70;45.00;;;;;;4901700;28;45181;-60
2022/04/07 06:53:43;;;;;;;0.40;0.35;;;19.80;45.00;;;;;;4909401;28;45665;-57
2022/04/07 06:56:10;;;;;;;0.20;0.20;;;19.90;44.80;;;;;;4901101;28;45866;-59
2022/04/07 06:58:35;;;;;;;1.42;0.40;;;20.00;44.70;;;;;;4898341;29;44618;-61
2022/04/07 07:01:01;;;;;;;0.45;0.30;;;20.20;44.60;;;;;;4899472;28;45222;-59
2022/04/07 07:03:28;;;;;;;1.10;0.30;;;20.30;44.50;;;;;;4901056;29;45333;-58
2022/04/07 07:05:58;;;;;;;0.20;0.20;;;20.40;44.40;;;;;;4895781;28;46211;-57
2022/04/07 07:08:23;;;;;;;0.20;0.20;;;20.50;44.30;;;;;;4907347;28;44709;-60
2022/04/07 07:10:50;;;;;;;0.40;0.20;;;20.60;44.20;;;;;;4889760;29;45151;-60
2022/04/07 07:13:17;;;;;;;1.90;0.17;;;20.70;44.10;;;;;;4900303;29;45615;-57
2022/04/07 07:15:43;;;;;;;0.13;0.13;;;20.80;44.00;;;;;;4900273;29;46160;-59
2022/04/07 07:18:09;;;;;;;0.57;0.20;;;20.90;43.90;;;;;;4901607;29;45147;-60
2022/04/07 07:20:35;;;;;;;0.20;0.20;;;21.00;43.80;;;;;;4898901;28;45610;-61
2022/04/07 07:23:00;;;;;;;2.05;0.25;;;21.10;43.80;;;;;;4908562;28;45558;-59
2022/04/07 07:25:27;;;;;;;0.35;0.20;;;21.20;43.70;;;;;;4900070;29;45964;-57
2022/04/07 07:27:53;;;;;;;1.20;0.20;;;21.40;43.60;;;;;;4899871;29;45466;-55
2022/04/07 07:30:18;;;;;;;2.50;0.20;;;21.50;43.50;;;;;;4898722;28;45188;-59
2022/04/07 07:32:45;;;;;;;1.40;0.22;;;21.60;43.40;;;;;;4901115;29;45458;-58
2022/04/07 07:35:11;;;;;;;0.20;0.20;;;21.70;43.30;;;;;;4901285;28;44979;-61
2022/04/07 07:37:37;;;;;;;0.35;0.20;;;21.70;43.20;;;;;;4898639;29;45174;-57
2022/04/07 07:40:04;;;;;;;1.98;0.10;;;21.80;43.20;;;;;;4900784;29;45466;-58
2022/04/07 07:42:29;;;;;;;0.20;0.20;;;21.90;43.00;;;;;;4891687;28;44956;-59
2022/04/07 07:44:55;;;;;;;0.20;0.20;;;22.00;43.00;;;;;;4900910;29;45630;-60
2022/04/07 07:47:21;;;;;;;1.00;0.20;;;22.10;42.90;;;;;;4888018;29;45505;-57
2022/04/07 07:49:46;;;;;;;0.45;0.20;;;22.20;42.80;;;;;;4898048;28;45288;-60
2022/04/07 07:52:12;;;;;;;1.60;0.20;;;22.30;42.70;;;;;;4899247;28;45623;-59
2022/04/07 07:54:37;;;;;;;0.20;0.10;;;22.40;42.60;;;;;;4908177;28;46156;-56
2022/04/07 07:57:03;;;;;;;0.47;0.15;;;22.50;42.60;;;;;;4895216;28;45508;-59
2022/04/07 07:59:29;;;;;;;0.73;0.20;;;22.50;42.50;;;;;;4888197;29;45157;-59
2022/04/07 08:01:54;;;;;;;0.47;0.20;;;22.60;42.40;;;;;;4898269;28;45573;-60
2022/04/07 08:04:20;;;;;;;1.02;0.17;;;22.70;42.30;;;;;;4882054;29;47208;-60
2022/04/07 08:06:45;;;;;;;0.10;0.10;;;22.80;42.30;;;;;;4904403;28;45038;-60
2022/04/07 08:09:13;;;;;;;0.43;0.20;;;22.90;42.30;;;;;;4893446;29;45506;-59
2022/04/07 08:11:41;;;;;;;0.17;0.17;;;22.90;42.20;;;;;;4880322;29;45396;-60
2022/04/07 08:14:06;;;;;;;1.45;0.35;;;23.00;42.70;;;;;;4892948;29;45533;-60
2022/04/07 08:16:32;;;;;;;0.25;0.10;;;23.10;42.10;;;;;;4898455;29;45368;-63
2022/04/07 08:18:58;;;;;;;0.30;0.15;;;23.10;42.00;;;;;;4906653;28;45309;-62
2022/04/07 08:21:23;;;;;;;0.40;0.10;;;23.20;41.90;;;;;;4902890;28;44962;-63
2022/04/07 08:23:49;;;;;;;0.70;0.30;;;23.30;41.90;;;;;;4899421;28;46093;-61
2022/04/07 08:26:15;;;;;;;0.15;0.10;;;23.30;41.80;;;;;;4899148;29;45478;-61
2022/04/07 08:28:41;;;;;;;0.40;0.10;;;23.40;41.80;;;;;;4883197;29;45407;-59
2022/04/07 08:31:07;;;;;;;1.17;0.13;;;23.40;41.70;;;;;;4879653;29;45394;-59
2022/04/07 08:33:32;;;;;;;0.77;0.20;;;23.50;41.60;;;;;;4890126;29;46969;-57
2022/04/07 08:35:58;;;;;;;0.10;0.10;;;23.50;41.50;;;;;;4899647;28;45227;-59
2022/04/07 08:38:24;;;;;;;0.13;0.10;;;23.60;41.50;;;;;;4898860;29;45579;-60
2022/04/07 08:40:51;;;;;;;2.20;0.10;;;23.70;41.50;;;;;;4900336;28;45547;-59
2022/04/07 08:43:19;;;;;;;0.10;0.10;;;23.70;41.40;;;;;;4895530;29;45355;-60
2022/04/07 08:45:45;;;;;;;0.03;0.03;;;23.80;41.40;;;;;;4888798;29;45549;-58
2022/04/07 08:48:12;;;;;;;0.82;0.13;;;23.80;41.30;;;;;;4902280;28;44908;-60
2022/04/07 08:50:42;;;;;;;0.20;0.10;;;23.80;41.30;;;;;;4898288;29;45386;-60
2022/04/07 08:53:07;;;;;;;0.38;0.10;;;23.90;41.20;;;;;;4897612;29;45892;-58
2022/04/07 08:55:33;;;;;;;0.20;0.10;;;23.90;41.20;;;;;;4898937;29;45493;-62
2022/04/07 08:58:00;;;;;;;0.10;0.10;;;24.00;41.20;;;;;;4898929;29;45461;-59
2022/04/07 09:00:26;;;;;;;0.10;0.10;;;24.00;41.20;;;;;;4898591;28;45328;-56
2022/04/07 09:02:53;;;;;;;0.30;0.10;;;24.10;41.10;;;;;;4898953;29;45936;-63
2022/04/07 09:05:23;;;;;;;0.13;0.10;;;24.10;41.00;;;;;;4901638;28;45311;-61
2022/04/07 09:07:50;;;;;;;0.10;0.00;;;24.10;41.00;;;;;;4899735;28;45001;-62
2022/04/07 09:10:17;;;;;;;0.73;0.20;;;24.10;40.90;;;;;;4898436;28;44747;-59
2022/04/07 09:12:44;;;;;;;0.38;0.10;;;24.20;40.90;;;;;;4907780;28;45113;-61
2022/04/07 09:15:10;;;;;;;0.10;0.10;;;24.20;40.90;;;;;;4891892;28;45369;-61
2022/04/07 09:17:51;;;;;;;0.20;0.10;;;24.30;40.90;;;;;;4876474;28;44798;-59
2022/04/07 09:20:17;;;;;;;0.10;0.10;;;24.30;40.50;;;;;;4918194;28;45037;-57
2022/04/07 09:22:43;;;;;;;0.20;0.20;;;24.30;40.80;;;;;;4903220;28;46335;-58
2022/04/07 09:25:10;;;;;;;0.20;0.15;;;24.40;40.80;;;;;;4899749;29;44593;-56
2022/04/07 09:27:40;;;;;;;0.20;0.10;;;24.40;40.80;;;;;;4900422;28;45093;-58
2022/04/07 09:30:08;;;;;;;0.57;0.10;;;24.40;40.70;;;;;;4891310;28;45166;-60
2022/04/07 09:32:40;;;;;;;0.00;0.00;;;24.40;40.70;;;;;;4905563;28;46224;-60
2022/04/07 09:35:06;;;;;;;0.08;0.08;;;24.50;40.60;;;;;;4886582;29;45412;-60
2022/04/07 09:37:31;;;;;;;2.63;0.10;;;24.50;40.50;;;;;;4909912;28;44685;-59
2022/04/07 09:40:02;;;;;;;0.70;0.20;;;24.50;40.60;;;;;;4902853;28;45072;-59
2022/04/07 09:42:29;;;;;;;0.10;0.00;;;24.50;40.40;;;;;;4913943;28;46206;-59
2022/04/07 09:44:59;;;;;;;0.15;0.10;;;24.50;40.50;;;;;;4910438;28;45201;-58
2022/04/07 09:47:35;;;;;;;0.08;0.00;;;24.60;40.50;;;;;;4916536;28;45402;-58
2022/04/07 09:50:02;;;;;;;0.40;0.08;;;24.60;40.40;;;;;;4892196;29;45095;-58
2022/04/07 09:52:27;;;;;;;0.10;0.10;;;24.60;40.50;;;;;;4884071;29;46183;-59
2022/04/07 09:54:53;;;;;;;0.20;0.10;;;24.60;40.50;;;;;;4888833;29;45398;-56
2022/04/07 09:57:20;;;;;;;1.17;0.10;;;24.60;40.50;;;;;;4883912;29;44831;-57
2022/04/07 09:59:46;;;;;;;0.00;0.00;;;24.70;40.50;;;;;;4903698;28;45474;-60
2022/04/07 10:02:11;;;;;;;0.10;0.10;;;24.70;40.40;;;;;;4884587;29;45541;-58
2022/04/07 10:04:37;;;;;;;0.10;0.10;;;24.70;40.40;;;;;;4899590;28;44688;-59
2022/04/07 10:07:05;;;;;;;0.15;0.10;;;24.70;40.40;;;;;;4866438;29;45310;-58
2022/04/07 10:09:31;;;;;;;0.50;0.10;;;24.70;40.30;;;;;;4868745;29;45414;-58
2022/04/07 10:11:59;;;;;;;0.10;0.10;;;24.80;40.30;;;;;;4879327;29;46322;-55
2022/04/07 10:14:25;;;;;;;0.20;0.10;;;24.80;40.30;;;;;;4910182;28;45550;-58
2022/04/07 10:16:50;;;;;;;0.10;0.10;;;24.80;40.30;;;;;;4887256;28;45373;-59
2022/04/07 10:19:52;;;;;;;0.20;0.10;;;24.80;40.30;;;;;;4900542;29;44869;-59
2022/04/07 10:22:38;;;;;;;0.98;0.10;;;24.80;39.90;;;;;;4881505;29;46017;-58
2022/04/07 10:25:03;;;;;;;1.85;0.10;;;24.80;40.20;;;;;;4884488;29;44687;-59
2022/04/07 10:27:30;;;;;;;0.25;0.00;;;24.80;40.20;;;;;;4884000;29;45290;-60
2022/04/07 10:30:11;;;;;;;0.20;0.20;;;24.90;40.20;;;;;;4887199;29;45189;-59
2022/04/07 10:32:44;;;;;;;0.20;0.10;;;24.90;40.00;;;;;;4898160;29;46203;-60
2022/04/07 10:35:11;;;;;;;0.10;0.10;;;24.80;40.00;;;;;;4891942;28;44984;-59
2022/04/07 10:37:44;;;;;;;0.05;0.03;;;24.90;40.10;;;;;;4898064;28;45284;-58
2022/04/07 10:40:50;;;;;;;0.25;0.10;;;24.90;40.10;;;;;;4900351;28;45205;-58
2022/04/07 10:43:22;;;;;;;2.33;0.20;;;24.90;39.80;;;;;;4907149;28;46327;-59
2022/04/07 10:45:49;;;;;;;2.60;0.20;;;24.90;40.00;;;;;;4898837;29;45002;-57
2022/04/07 10:48:31;;;;;;;0.55;0.10;;;24.90;40.00;;;;;;4901689;28;44675;-59
2022/04/07 10:51:09;;;;;;;0.20;0.10;;;24.80;39.80;;;;;;4902236;28;45232;-59
2022/04/07 10:53:39;;;;;;;2.65;0.30;;;24.80;40.10;;;;;;4895840;29;46218;-59
2022/04/07 10:56:34;;;;;;;0.88;0.10;;;24.80;40.00;;;;;;4893144;29;45234;-57
2022/04/07 10:59:21;;;;;;;0.30;0.17;;;24.70;39.90;;;;;;4898850;28;44963;-57
2022/04/07 11:02:05;;;;;;;0.80;0.00;;;24.70;39.90;;;;;;4894082;28;45145;-58
2022/04/07 11:04:31;;;;;;;0.10;0.10;;;24.60;40.30;;;;;;4892309;29;46117;-56
2022/04/07 11:07:15;;;;;;;0.25;0.10;;;24.50;40.40;;;;;;4902971;28;44580;-58
2022/04/07 11:09:49;;;;;;;0.00;0.00;;;24.50;40.30;;;;;;4892168;29;45456;-57
2022/04/07 11:12:22;;;;;;;0.30;0.08;;;24.40;40.40;;;;;;4900300;28;44779;-58
2022/04/07 11:14:49;;;;;;;;;;;24.40;40.50;;;;;;4901143;28;46940;-61
2022/04/07 11:17:43;;;;;;;0.52;0.10;;;24.30;40.40;;;;;;4901144;28;44950;-59
2022/04/07 11:20:25;;;;;;;0.10;0.10;;;24.20;40.70;;;;;;4884851;29;45307;-59
2022/04/07 11:22:52;;;;;;;0.40;0.10;;;24.20;40.70;;;;;;4884753;28;45472;-59
2022/04/07 11:25:37;;;;;;;0.30;0.10;;;24.10;40.80;;;;;;4900677;29;46224;-59
2022/04/07 11:28:18;;;;;;;0.10;0.10;;;24.10;40.70;;;;;;4904546;28;44858;-54
2022/04/07 11:31:00;;;;;;;0.80;0.08;;;24.00;40.80;;;;;;4899169;28;45351;-59
2022/04/07 11:33:28;;;;;;;0.22;0.10;;;24.00;40.80;;;;;;4900222;28;45560;-58
2022/04/07 11:36:00;;;;;;;0.60;0.10;;;24.00;40.90;;;;;;4899773;28;46010;-59
2022/04/07 11:38:44;;;;;;;0.10;0.10;;;23.90;41.00;;;;;;4905929;28;45220;-58
2022/04/07 11:41:11;;;;;;;0.35;0.20;;;23.90;41.00;;;;;;4884640;29;45435;-60
2022/04/07 11:43:43;;;;;;;0.30;0.10;;;23.80;41.10;;;;;;4906538;28;45262;-60
2022/04/07 11:46:09;;;;;;;0.47;0.10;;;23.80;41.20;;;;;;4896203;28;48225;-60
2022/04/07 11:48:36;;;;;;;1.30;0.20;;;23.70;41.20;;;;;;4904220;28;45495;-56
2022/04/07 11:51:12;;;;;;;1.08;0.10;;;23.70;41.30;;;;;;4898619;28;45179;-61
2022/04/07 11:53:39;;;;;;;1.42;0.13;;;23.70;41.30;;;;;;4899703;29;45339;-58
2022/04/07 11:56:20;;;;;;;0.75;0.20;;;23.70;41.40;;;;;;4890187;29;46462;-60
2022/04/07 11:59:10;;;;;;;0.30;0.17;;;23.60;41.30;;;;;;4887946;28;45271;-57
2022/04/07 12:01:37;;;;;;;0.30;0.05;;;23.60;41.30;;;;;;4888245;29;45577;-61
2022/04/07 12:04:04;;;;;;;0.10;0.10;;;23.60;41.40;;;;;;4897675;29;44734;-59
2022/04/07 12:06:31;;;;;;;0.52;0.20;;;23.50;42.00;;;;;;4897332;28;46149;-59
2022/04/07 12:08:57;;;;;;;3.70;0.50;;;23.50;41.50;;;;;;4901646;28;45373;-59
2022/04/07 12:11:24;;;;;;;0.10;0.10;;;23.50;41.60;;;;;;4898941;28;45550;-59
2022/04/07 12:13:50;;;;;;;1.08;0.20;;;23.40;41.70;;;;;;4897551;28;45618;-60
2022/04/07 12:16:15;;;;;;;0.20;0.20;;;23.40;41.60;;;;;;4889829;29;46076;-58
2022/04/07 12:18:41;;;;;;;0.13;0.13;;;23.40;41.70;;;;;;4888778;28;45416;-57
2022/04/07 12:21:09;;;;;;;0.55;0.20;;;23.30;41.70;;;;;;4898697;28;45499;-59
2022/04/07 12:23:37;;;;;;;0.10;0.10;;;23.30;41.80;;;;;;4900401;29;45048;-59
2022/04/07 12:26:03;;;;;;;0.10;0.10;;;23.30;41.80;;;;;;4888701;29;46327;-59
2022/04/07 12:28:38;;;;;;;4.47;0.30;;;23.20;41.80;;;;;;4864895;29;45524;-59
2022/04/07 12:31:21;;;;;;;0.88;0.15;;;23.20;41.80;;;;;;4883829;29;45301;-59
2022/04/07 12:33:47;;;;;;;0.30;0.10;;;23.20;41.90;;;;;;4899408;29;45445;-58
2022/04/07 12:36:16;;;;;;;1.40;0.10;;;23.20;42.00;;;;;;4894694;28;45982;-56
2022/04/07 12:39:06;;;;;;;0.10;0.10;;;23.10;41.90;;;;;;4908543;28;45214;-55
2022/04/07 12:41:38;;;;;;;0.10;0.10;;;23.10;42.00;;;;;;4885574;29;44696;-56
2022/04/07 12:44:04;;;;;;;0.23;0.10;;;23.10;42.10;;;;;;4899546;29;45133;-58
2022/04/07 12:46:50;;;;;;;0.32;0.10;;;23.10;42.10;;;;;;4895838;28;46192;-58
2022/04/07 12:49:26;;;;;;;0.10;0.10;;;23.00;42.00;;;;;;4895603;28;45349;-58
2022/04/07 12:52:04;;;;;;;0.03;0.03;;;23.00;42.00;;;;;;4895363;29;44964;-60
2022/04/07 12:54:29;;;;;;;0.00;0.00;;;23.00;42.10;;;;;;4883460;29;45212;-60
2022/04/07 12:57:14;;;;;;;0.10;0.10;;;22.90;42.10;;;;;;4894183;28;46011;-59
2022/04/07 12:59:56;;;;;;;0.20;0.20;;;22.90;42.20;;;;;;4899269;28;44662;-58
2022/04/07 13:02:22;;;;;;;0.20;0.20;;;22.90;42.90;;;;;;4900379;28;44970;-58
2022/04/07 13:04:49;;;;;;;1.50;0.30;;;22.90;42.30;;;;;;4879557;28;44987;-60
2022/04/07 13:07:15;;;;;;;0.30;0.10;;;22.80;42.30;;;;;;4876478;29;46189;-60
2022/04/07 13:09:41;;;;;;;0.30;0.22;;;22.80;42.30;;;;;;4894308;28;45487;-58
2022/04/07 13:12:07;;;;;;;0.47;0.20;;;22.80;42.30;;;;;;4905442;28;45460;-59
2022/04/07 13:14:34;;;;;;;1.40;0.30;;;22.80;42.40;;;;;;4906947;28;45697;-60
2022/04/07 13:17:00;;;;;;;0.10;0.10;;;22.80;42.30;;;;;;4899065;29;46018;-57
2022/04/07 13:19:26;;;;;;;0.10;0.10;;;22.80;42.30;;;;;;4900048;29;45321;-60
2022/04/07 13:21:51;;;;;;;0.10;0.10;;;22.70;43.00;;;;;;4882668;29;44698;-56
2022/04/07 13:24:17;;;;;;;0.77;0.20;;;22.70;42.40;;;;;;4882897;29;45210;-58
2022/04/07 13:26:44;;;;;;;0.10;0.10;;;22.70;42.50;;;;;;4900090;29;45840;-60
2022/04/07 13:29:09;;;;;;;0.00;0.00;;;22.70;42.50;;;;;;4881554;29;44704;-58
2022/04/07 13:31:35;;;;;;;0.10;0.10;;;22.70;42.50;;;;;;4896491;28;45623;-58
2022/04/07 13:34:03;;;;;;;0.10;0.10;;;22.70;42.50;;;;;;4901799;28;45290;-57
2022/04/07 13:36:29;;;;;;;0.57;0.10;;;22.60;42.50;;;;;;4903140;28;46210;-59
2022/04/07 13:38:54;;;;;;;1.83;0.25;;;22.60;42.50;;;;;;4901093;28;45227;-61
2022/04/07 13:41:21;;;;;;;0.10;0.10;;;22.60;43.20;;;;;;4887486;29;45699;-59
2022/04/07 13:43:46;;;;;;;0.25;0.10;;;22.60;42.70;;;;;;4893477;28;44931;-57
2022/04/07 13:46:13;;;;;;;0.68;0.20;;;22.50;42.60;;;;;;4902585;28;46189;-58
2022/04/07 13:48:38;;;;;;;0.90;0.30;;;22.50;42.60;;;;;;4898548;29;45261;-58
2022/04/07 13:51:04;;;;;;;1.00;0.10;;;22.50;42.60;;;;;;4890343;28;45632;-60
2022/04/07 13:53:30;;;;;;;0.10;0.10;;;22.50;42.70;;;;;;4902582;28;46119;-57
2022/04/07 13:55:55;;;;;;;0.20;0.20;;;22.50;42.70;;;;;;4897737;28;46319;-57
2022/04/07 13:58:21;;;;;;;0.60;0.13;;;22.40;42.80;;;;;;4900856;28;44836;-63
2022/04/07 14:00:46;;;;;;;0.55;0.15;;;22.40;42.80;;;;;;4902083;28;45353;-64
2022/04/07 14:03:12;;;;;;;0.22;0.17;;;22.40;42.90;;;;;;4901075;28;45311;-63
2022/04/07 14:05:38;;;;;;;0.10;0.10;;;22.40;42.90;;;;;;4889071;29;45362;-64
2022/04/07 14:08:04;;;;;;;0.30;0.20;;;22.40;42.90;;;;;;4890090;28;45952;-64
2022/04/07 14:10:30;;;;;;;0.20;0.17;;;22.40;42.90;;;;;;4910570;28;45405;-64
2022/04/07 14:12:56;;;;;;;0.00;0.00;;;22.40;43.00;;;;;;4922963;28;45567;-61
2022/04/07 14:15:23;;;;;;;0.25;0.10;;;22.30;42.90;;;;;;4884394;28;45629;-63
2022/04/07 14:17:48;;;;;;;0.28;0.10;;;22.40;43.00;;;;;;4895206;28;45222;-63
2022/04/07 14:20:14;;;;;;;2.75;0.20;;;22.30;42.90;;;;;;4864077;28;45660;-64
2022/04/07 14:22:40;;;;;;;0.03;0.03;;;22.30;43.00;;;;;;4881018;28;44744;-64
2022/04/07 14:25:06;;;;;;;0.10;0.10;;;22.30;43.00;;;;;;4877355;29;47623;-63
2022/04/07 14:27:32;;;;;;;0.20;0.10;;;22.30;43.00;;;;;;4879721;28;45432;-64
2022/04/07 14:29:57;;;;;;;0.10;0.10;;;22.20;43.00;;;;;;4880069;29;45492;-63
2022/04/07 14:32:23;;;;;;;0.10;0.10;;;22.20;43.10;;;;;;4881481;28;45653;-66
2022/04/07 14:34:49;;;;;;;0.10;0.10;;;22.20;43.00;;;;;;4881268;28;46086;-63
2022/04/07 14:37:15;;;;;;;0.15;0.10;;;22.20;43.10;;;;;;4895393;28;45475;-64
2022/04/07 14:39:41;;;;;;;0.25;0.13;;;22.20;43.10;;;;;;4897298;28;45453;-65
2022/04/07 14:42:06;;;;;;;0.10;0.10;;;22.20;43.10;;;;;;4874647;29;45878;-66
2022/04/07 14:44:32;;;;;;;0.10;0.10;;;22.20;43.20;;;;;;4893664;28;45479;-66
2022/04/07 14:46:58;;;;;;;0.40;0.20;;;22.20;43.20;;;;;;4876502;29;45166;-64
2022/04/07 14:49:29;;;;;;;0.10;0.10;;;22.10;43.10;;;;;;4883485;29;44756;-64
2022/04/07 14:51:55;;;;;;;0.32;0.10;;;22.20;43.20;;;;;;4863317;28;45393;-65
2022/04/07 14:54:23;;;;;;;0.88;0.10;;;22.10;43.10;;;;;;4880832;29;46174;-67
2022/04/07 14:56:49;;;;;;;0.05;0.03;;;22.10;43.20;;;;;;4883483;28;45480;-65
2022/04/07 14:59:14;;;;;;;1.17;0.10;;;22.10;43.20;;;;;;4882168;29;45287;-66
2022/04/07 15:01:40;;;;;;;0.00;0.00;;;22.10;43.20;;;;;;4891227;28;45374;-66
2022/04/07 15:04:05;;;;;;;2.22;0.10;;;22.10;43.30;;;;;;4880811;29;45231;-66
2022/04/07 15:06:31;;;;;;;0.03;0.03;;;22.10;43.30;;;;;;4849766;29;45386;-66
2022/04/07 15:08:56;;;;;;;0.20;0.10;;;22.10;43.30;;;;;;4878751;29;45026;-67
2022/04/07 15:11:22;;;;;;;2.10;0.10;;;22.10;43.30;;;;;;4860714;29;45350;-65
2022/04/07 15:13:47;;;;;;;0.15;0.10;;;22.10;43.30;;;;;;4877453;29;45990;-66
2022/04/07 15:16:14;;;;;;;0.28;0.15;;;22.10;43.30;;;;;;4864786;29;44823;-65
2022/04/07 15:18:40;;;;;;;0.75;0.10;;;22.00;43.30;;;;;;4880300;29;45516;-67
2022/04/07 15:21:07;;;;;;;0.10;0.10;;;22.00;43.40;;;;;;4887063;29;44782;-69
2022/04/07 15:23:32;;;;;;;0.28;0.08;;;22.00;43.40;;;;;;4874988;29;45150;-63
2022/04/07 15:25:58;;;;;;;0.10;0.10;;;22.00;43.40;;;;;;4880946;29;45525;-64
2022/04/07 15:28:23;;;;;;;1.17;0.10;;;22.00;43.50;;;;;;4853794;29;46990;-63
2022/04/07 15:30:49;;;;;;;0.10;0.10;;;22.00;43.50;;;;;;4883715;28;45495;-64
2022/04/07 15:33:15;;;;;;;0.10;0.10;;;22.00;43.50;;;;;;4852237;29;45078;-65
2022/04/07 15:35:40;;;;;;;0.20;0.10;;;21.90;43.50;;;;;;4877987;29;45161;-65
2022/04/07 15:38:06;;;;;;;0.20;0.20;;;21.90;43.50;;;;;;4882052;29;45657;-65
2022/04/07 15:40:32;;;;;;;0.20;0.20;;;21.90;43.60;;;;;;4859429;29;45381;-65
2022/04/07 15:42:58;;;;;;;0.20;0.20;;;21.90;43.60;;;;;;4862392;29;44949;-66
2022/04/07 15:45:24;;;;;;;0.55;0.10;;;21.90;43.70;;;;;;4878231;29;45415;-65
2022/04/07 15:47:49;;;;;;;0.38;0.20;;;21.80;43.80;;;;;;4871321;29;45529;-65
2022/04/07 15:50:15;;;;;;;0.10;0.10;;;21.80;43.90;;;;;;4864049;29;45573;-65
2022/04/07 15:52:41;;;;;;;0.10;0.10;;;21.80;43.90;;;;;;4853702;29;45883;-65